Time;durP1;ratioP1;P1;durP2;ratioP2;P2;SDS_P1;SDS_P2;PMS_P1;PMS_P2;Temp;Humidity;BMP_temperature;BMP_pressure;BME280_temperature;BME280_humidity;BME280_pressure;Samples;Min_cycle;Max_cycle;Signal;HPM_P1;HPM_P2
2024/01/18 00:02:00;;;;;;;63.80;28.70;;;;;;;1.33;98.08;97393.83;108709;1261;25539;-77
2024/01/18 00:04:51;;;;;;;69.60;33.00;;;;;;;1.34;97.94;97386.50;108480;1266;22724;-77
2024/01/18 00:07:42;;;;;;;68.90;31.80;;;;;;;1.32;97.98;97387.63;108473;1263;24212;-76
2024/01/18 00:10:33;;;;;;;63.20;29.20;;;;;;;1.31;98.06;97390.77;108615;1260;25331;-76
2024/01/18 00:13:24;;;;;;;63.10;29.00;;;;;;;1.31;98.11;97393.35;108571;1267;22627;-75
2024/01/18 00:16:15;;;;;;;59.60;26.70;;;;;;;1.31;98.05;97398.55;108665;1267;22539;-76
2024/01/18 00:19:06;;;;;;;70.30;31.70;;;;;;;1.29;98.13;97401.99;108511;1267;24218;-81
2024/01/18 00:21:57;;;;;;;71.30;32.40;;;;;;;1.30;98.30;97402.05;108416;1267;22743;-78
2024/01/18 00:24:48;;;;;;;72.60;33.40;;;;;;;1.30;98.30;97402.41;108587;1254;25271;-78
2024/01/18 00:27:39;;;;;;;63.60;29.90;;;;;;;1.30;98.26;97404.55;108589;1260;24344;-77
2024/01/18 00:30:30;;;;;;;59.40;27.90;;;;;;;1.30;98.48;97405.45;108538;1267;22573;-76
2024/01/18 00:33:20;;;;;;;61.60;26.80;;;;;;;1.29;98.42;97401.08;108643;1266;22740;-76
2024/01/18 00:36:12;;;;;;;61.40;28.80;;;;;;;1.28;98.56;97407.88;108371;1267;22702;-78
2024/01/18 00:39:09;;;;;;;60.10;26.60;;;;;;;1.29;98.54;97410.34;108644;1267;22599;-77
2024/01/18 00:42:00;;;;;;;55.60;25.30;;;;;;;1.30;98.64;97411.55;108323;1266;22698;-76
2024/01/18 00:44:51;;;;;;;67.30;29.20;;;;;;;1.29;98.79;97419.73;108500;1260;23459;-77
2024/01/18 00:47:42;;;;;;;73.90;32.20;;;;;;;1.25;98.76;97420.64;108844;1267;25239;-76
2024/01/18 00:50:33;;;;;;;80.00;36.30;;;;;;;1.25;98.72;97418.84;108527;1266;22534;-78
2024/01/18 00:53:24;;;;;;;62.20;28.60;;;;;;;1.25;98.86;97420.09;108580;1267;22895;-77
2024/01/18 00:56:15;;;;;;;72.50;31.30;;;;;;;1.25;98.98;97419.58;108640;1257;22572;-76
2024/01/18 00:59:06;;;;;;;65.50;29.10;;;;;;;1.28;98.89;97414.67;108438;1245;22544;-76
2024/01/18 01:01:57;;;;;;;66.50;29.70;;;;;;;1.29;98.81;97418.83;108523;1257;22542;-78
2024/01/18 01:04:48;;;;;;;63.50;27.20;;;;;;;1.28;98.92;97422.71;108583;1267;22548;-77
2024/01/18 01:07:39;;;;;;;60.10;28.10;;;;;;;1.29;98.91;97422.77;108547;1253;22521;-76
2024/01/18 01:10:30;;;;;;;62.40;29.30;;;;;;;1.30;98.87;97428.58;108732;1267;25462;-76
2024/01/18 01:13:21;;;;;;;64.80;31.70;;;;;;;1.29;99.03;97432.94;108564;1267;22763;-76
2024/01/18 01:16:12;;;;;;;69.40;29.90;;;;;;;1.29;99.04;97438.55;108503;1266;22553;-79
2024/01/18 01:19:03;;;;;;;63.70;28.60;;;;;;;1.27;99.12;97435.54;108367;1267;23104;-76
2024/01/18 01:21:54;;;;;;;70.90;31.50;;;;;;;1.26;99.09;97443.38;108538;1267;25157;-76
2024/01/18 01:24:45;;;;;;;72.10;32.50;;;;;;;1.25;99.23;97443.66;108544;1266;22525;-77
2024/01/18 01:27:36;;;;;;;63.80;28.30;;;;;;;1.22;99.30;97450.73;108613;1266;22757;-78
2024/01/18 01:30:27;;;;;;;49.00;22.10;;;;;;;1.19;99.33;97455.45;108561;1267;22563;-79
2024/01/18 01:33:18;;;;;;;49.20;23.40;;;;;;;1.17;99.37;97451.88;108644;1266;25523;-78
2024/01/18 01:36:10;;;;;;;50.10;24.10;;;;;;;1.18;99.49;97454.52;108530;1263;25457;-79
2024/01/18 01:39:02;;;;;;;54.90;22.70;;;;;;;1.17;99.57;97452.98;108436;1267;25450;-76
2024/01/18 01:41:54;;;;;;;56.50;26.00;;;;;;;1.18;99.57;97455.53;108412;1264;24206;-78
2024/01/18 01:44:45;;;;;;;57.50;26.50;;;;;;;1.17;99.52;97456.71;108717;1257;22568;-77
2024/01/18 01:47:36;;;;;;;53.10;24.30;;;;;;;1.17;99.75;97460.21;108527;1263;25271;-77
2024/01/18 01:50:28;;;;;;;54.50;25.30;;;;;;;1.19;99.84;97461.98;108544;1266;22533;-77
2024/01/18 01:53:21;;;;;;;58.30;27.40;;;;;;;1.20;99.81;97464.91;108460;1263;24180;-77
2024/01/18 01:56:12;;;;;;;61.30;26.50;;;;;;;1.23;99.89;97466.86;110590;1263;25313;-78
2024/01/18 01:59:04;;;;;;;70.80;31.60;;;;;;;1.22;99.87;97470.61;108600;1267;22539;-76
2024/01/18 02:01:56;;;;;;;67.40;32.00;;;;;;;1.20;99.89;97469.86;108627;1266;23031;-76
2024/01/18 02:04:47;;;;;;;66.90;30.10;;;;;;;1.20;99.98;97474.89;111556;1263;23015;-76
2024/01/18 02:07:38;;;;;;;59.50;27.90;;;;;;;1.21;100.00;97477.45;111541;1263;22170;-77
2024/01/18 02:10:30;;;;;;;58.80;27.00;;;;;;;1.22;99.96;97477.77;111551;1261;22038;-75
2024/01/18 02:13:21;;;;;;;66.10;30.30;;;;;;;1.23;100.00;97477.18;111538;1264;23174;-77
2024/01/18 02:16:12;;;;;;;58.40;26.40;;;;;;;1.27;100.00;97480.61;111569;1267;23007;-75
2024/01/18 02:19:03;;;;;;;45.50;20.10;;;;;;;1.30;100.00;97485.05;111590;1260;22149;-75
2024/01/18 02:21:54;;;;;;;47.20;21.30;;;;;;;1.34;100.00;97490.14;111587;1255;22319;-76
2024/01/18 02:24:52;;;;;;;44.40;19.10;;;;;;;1.39;100.00;97496.67;111564;1267;22328;-73
2024/01/18 02:27:43;;;;;;;42.40;17.90;;;;;;;1.43;100.00;97497.08;111497;1266;22326;-75
2024/01/18 02:30:34;;;;;;;43.20;17.40;;;;;;;1.44;100.00;97498.34;111580;1267;22155;-75
2024/01/18 02:33:24;;;;;;;35.90;13.80;;;;;;;1.45;100.00;97493.39;111537;1263;22181;-78
2024/01/18 02:36:14;;;;;;;;;;;;;;;1.46;100.00;97489.27;111560;1260;22340;-75
2024/01/18 02:39:05;;;;;;;39.80;14.80;;;;;;;1.47;100.00;97489.66;111560;1267;22231;-77
2024/01/18 02:41:55;;;;;;;41.10;15.70;;;;;;;1.49;100.00;97494.30;111545;1263;22167;-75
2024/01/18 02:44:47;;;;;;;38.60;14.70;;;;;;;1.51;100.00;97493.58;111536;1266;22118;-76
2024/01/18 02:47:38;;;;;;;41.90;16.80;;;;;;;1.52;100.00;97496.73;111541;1266;22520;-78
2024/01/18 02:50:28;;;;;;;36.20;14.80;;;;;;;1.53;100.00;97497.84;111557;1267;22385;-76
2024/01/18 02:53:20;;;;;;;37.50;15.40;;;;;;;1.55;100.00;97504.02;111536;1266;22877;-77
2024/01/18 02:56:10;;;;;;;32.60;12.30;;;;;;;1.58;100.00;97504.39;111454;1267;22927;-77
2024/01/18 02:59:01;;;;;;;35.10;13.00;;;;;;;1.60;100.00;97510.40;111556;1267;22790;-76
2024/01/18 03:01:52;;;;;;;31.30;10.90;;;;;;;1.62;100.00;97514.29;111532;1263;22323;-76
2024/01/18 03:04:43;;;;;;;32.30;12.50;;;;;;;1.63;100.00;97509.23;111553;1266;22156;-77
2024/01/18 03:07:34;;;;;;;30.90;10.40;;;;;;;1.67;100.00;97511.42;111434;1260;22177;-76
2024/01/18 03:10:25;;;;;;;27.20;9.20;;;;;;;1.69;100.00;97511.54;111552;1251;22727;-77
2024/01/18 03:13:16;;;;;;;25.40;9.50;;;;;;;1.69;100.00;97509.14;111391;1260;22407;-77
2024/01/18 03:16:08;;;;;;;24.90;9.20;;;;;;;1.70;100.00;97502.56;111545;1263;22846;-82
2024/01/18 03:18:59;;;;;;;29.60;10.00;;;;;;;1.70;100.00;97498.80;111478;1257;22207;-75
2024/01/18 03:21:49;;;;;;;25.90;9.60;;;;;;;1.68;100.00;97511.73;111587;1267;22148;-78
2024/01/18 03:24:40;;;;;;;25.90;9.10;;;;;;;1.64;100.00;97520.35;111519;1267;22081;-77
2024/01/18 03:27:31;;;;;;;30.60;11.60;;;;;;;1.62;100.00;97529.48;111520;1261;22232;-78
2024/01/18 03:30:22;;;;;;;28.30;10.70;;;;;;;1.58;100.00;97527.64;111536;1261;22151;-76
2024/01/18 03:33:13;;;;;;;30.20;12.20;;;;;;;1.55;100.00;97534.16;111554;1261;22146;-77
2024/01/18 03:36:04;;;;;;;26.60;10.40;;;;;;;1.52;100.00;97525.08;111550;1267;22157;-78
2024/01/18 03:38:54;;;;;;;31.10;11.60;;;;;;;1.50;100.00;97530.10;110305;1261;23115;-76
2024/01/18 03:41:45;;;;;;;31.50;11.20;;;;;;;1.48;100.00;97543.66;108520;1267;22556;-79
2024/01/18 03:44:37;;;;;;;26.40;9.60;;;;;;;1.45;100.00;97551.98;108452;1244;22579;-78
2024/01/18 03:47:27;;;;;;;27.50;11.10;;;;;;;1.43;100.00;97551.11;108506;1261;25376;-77
2024/01/18 03:50:19;;;;;;;28.50;10.80;;;;;;;1.39;100.00;97559.02;108501;1260;24227;-77
2024/01/18 03:53:10;;;;;;;26.60;10.30;;;;;;;1.36;100.00;97571.11;108525;1264;22668;-81
2024/01/18 03:56:01;;;;;;;30.90;12.10;;;;;;;1.33;100.00;97579.58;108477;1264;22667;-78
2024/01/18 03:58:52;;;;;;;30.20;12.40;;;;;;;1.29;100.00;97592.52;108522;1264;24192;-77
2024/01/18 04:01:43;;;;;;;30.20;11.80;;;;;;;1.26;100.00;97594.42;108576;1263;22525;-77
2024/01/18 04:04:34;;;;;;;29.70;12.60;;;;;;;1.23;100.00;97600.34;108701;1267;22634;-78
2024/01/18 04:07:25;;;;;;;30.80;12.20;;;;;;;1.20;100.00;97601.45;108590;1267;22659;-80
2024/01/18 04:10:14;;;;;;;;;;;;;;;1.17;100.00;97601.40;108689;1264;22667;-79
2024/01/18 04:13:08;;;;;;;26.30;10.60;;;;;;;1.13;100.00;97612.44;108405;1250;22540;-77
2024/01/18 04:15:58;;;;;;;;;;;;;;;1.11;100.00;97620.27;108409;1266;23422;-78
2024/01/18 04:18:48;;;;;;;31.10;11.50;;;;;;;1.06;100.00;97629.98;108735;1267;22527;-78
2024/01/18 04:21:40;;;;;;;29.40;10.40;;;;;;;1.03;100.00;97638.20;108683;1266;22600;-78
2024/01/18 04:24:31;;;;;;;33.40;13.90;;;;;;;0.99;100.00;97633.79;108578;1267;25271;-78
2024/01/18 04:27:22;;;;;;;33.20;13.40;;;;;;;0.97;100.00;97630.80;108551;1260;22660;-77
2024/01/18 04:30:15;;;;;;;35.60;13.90;;;;;;;0.95;100.00;97632.33;108875;1260;22692;-78
2024/01/18 04:33:06;;;;;;;30.00;12.90;;;;;;;0.94;100.00;97642.58;111555;1267;22873;-80
2024/01/18 04:35:57;;;;;;;33.60;14.20;;;;;;;0.93;100.00;97653.16;111546;1263;22359;-77
2024/01/18 04:38:49;;;;;;;33.60;13.20;;;;;;;0.91;100.00;97657.86;111574;1260;22161;-78
2024/01/18 04:41:40;;;;;;;35.50;14.20;;;;;;;0.90;100.00;97655.50;111521;1267;22851;-78
2024/01/18 04:44:30;;;;;;;35.20;13.90;;;;;;;0.90;100.00;97662.89;111553;1260;22668;-80
2024/01/18 04:47:19;;;;;;;;;;;;;;;0.90;100.00;97671.38;111590;1267;22414;-78
2024/01/18 04:50:11;;;;;;;32.50;12.80;;;;;;;0.88;100.00;97676.01;111626;1259;23095;-77
2024/01/18 04:53:02;;;;;;;36.60;13.90;;;;;;;0.87;100.00;97678.19;110315;1266;25452;-77
2024/01/18 04:55:53;;;;;;;30.20;11.30;;;;;;;0.85;100.00;97680.45;108458;1260;24249;-79
2024/01/18 04:58:44;;;;;;;35.10;14.10;;;;;;;0.83;100.00;97679.52;108265;1257;22651;-76
2024/01/18 05:01:39;;;;;;;31.20;13.00;;;;;;;0.80;100.00;97683.17;108410;1260;22767;-76
2024/01/18 05:04:30;;;;;;;33.60;14.20;;;;;;;0.77;100.00;97687.52;108349;1261;23060;-76
2024/01/18 05:07:22;;;;;;;35.10;14.80;;;;;;;0.74;100.00;97688.02;108336;1266;26510;-76
2024/01/18 05:10:13;;;;;;;29.70;12.10;;;;;;;0.70;100.00;97697.04;111617;1261;22397;-76
2024/01/18 05:13:04;;;;;;;30.00;12.70;;;;;;;0.67;100.00;97706.08;111649;1267;22305;-80
2024/01/18 05:15:59;;;;;;;38.70;15.30;;;;;;;0.64;100.00;97716.91;111490;1266;22117;-78
2024/01/18 05:18:49;;;;;;;34.30;13.90;;;;;;;0.62;100.00;97715.86;111504;1260;22322;-80
2024/01/18 05:21:40;;;;;;;35.30;15.90;;;;;;;0.59;100.00;97723.46;111491;1268;22160;-76
2024/01/18 05:24:32;;;;;;;33.80;14.80;;;;;;;0.57;100.00;97733.45;111620;1266;22163;-77
2024/01/18 05:27:23;;;;;;;37.10;14.90;;;;;;;0.55;100.00;97737.61;111592;1260;22172;-77
2024/01/18 05:30:15;;;;;;;36.10;15.40;;;;;;;0.52;100.00;97751.19;111597;1260;23018;-78
2024/01/18 05:33:06;;;;;;;35.10;13.90;;;;;;;0.50;100.00;97759.41;111584;1260;22451;-76
2024/01/18 05:35:57;;;;;;;34.40;12.40;;;;;;;0.47;100.00;97757.37;111544;1260;22360;-77
2024/01/18 05:38:48;;;;;;;37.90;16.00;;;;;;;0.44;100.00;97757.82;111586;1260;22300;-77
2024/01/18 05:41:38;;;;;;;37.00;14.70;;;;;;;0.42;100.00;97760.98;111506;1264;22207;-78
2024/01/18 05:44:29;;;;;;;35.20;15.60;;;;;;;0.41;100.00;97769.39;111495;1266;22775;-79
2024/01/18 05:47:21;;;;;;;36.60;13.90;;;;;;;0.38;100.00;97774.17;111623;1254;22098;-77
2024/01/18 05:50:12;;;;;;;41.40;17.40;;;;;;;0.35;100.00;97776.71;109894;1266;24221;-77
2024/01/18 05:53:03;;;;;;;38.90;16.10;;;;;;;0.32;100.00;97772.46;108621;1257;22568;-77
2024/01/18 05:55:54;;;;;;;39.50;15.80;;;;;;;0.31;100.00;97770.74;108510;1260;22630;-77
2024/01/18 05:58:45;;;;;;;38.60;17.20;;;;;;;0.29;100.00;97780.08;108471;1266;24183;-76
2024/01/18 06:01:36;;;;;;;39.90;16.60;;;;;;;0.28;100.00;97796.08;108579;1264;22615;-77
2024/01/18 06:04:30;;;;;;;37.30;14.90;;;;;;;0.26;100.00;97791.08;108511;1259;22582;-78
2024/01/18 06:07:22;;;;;;;43.40;17.50;;;;;;;0.24;100.00;97791.50;108317;1260;23495;-77
2024/01/18 06:10:13;;;;;;;40.10;16.80;;;;;;;0.23;100.00;97800.66;108599;1260;25268;-78
2024/01/18 06:13:04;;;;;;;42.70;18.00;;;;;;;0.20;100.00;97809.79;108534;1267;23897;-76
2024/01/18 06:15:55;;;;;;;47.40;20.00;;;;;;;0.19;100.00;97810.46;108397;1263;22657;-75
2024/01/18 06:18:46;;;;;;;44.80;18.60;;;;;;;0.17;100.00;97814.87;108517;1268;22524;-77
2024/01/18 06:21:37;;;;;;;47.20;20.00;;;;;;;0.15;100.00;97822.36;108643;1266;22759;-76
2024/01/18 06:24:28;;;;;;;52.90;21.20;;;;;;;0.13;100.00;97836.17;108503;1251;22535;-77
2024/01/18 06:27:19;;;;;;;47.00;20.10;;;;;;;0.11;100.00;97835.52;108542;1266;22513;-76
2024/01/18 06:30:13;;;;;;;46.80;21.70;;;;;;;0.09;100.00;97839.27;108494;1266;25036;-75
2024/01/18 06:33:04;;;;;;;56.90;23.30;;;;;;;0.08;100.00;97849.05;111447;1266;22193;-78
2024/01/18 06:35:55;;;;;;;48.00;20.70;;;;;;;0.06;100.00;97851.48;111604;1260;22336;-77
2024/01/18 06:38:46;;;;;;;52.50;23.40;;;;;;;0.06;100.00;97859.47;111626;1266;22153;-76
2024/01/18 06:41:37;;;;;;;52.60;19.70;;;;;;;0.06;100.00;97863.17;111630;1260;23008;-77
2024/01/18 06:44:28;;;;;;;52.30;22.80;;;;;;;0.07;100.00;97874.16;111611;1263;22203;-76
2024/01/18 06:47:19;;;;;;;50.40;20.40;;;;;;;0.06;100.00;97875.63;111652;1260;22146;-76
2024/01/18 06:50:13;;;;;;;49.00;19.80;;;;;;;0.05;100.00;97871.90;111606;1266;22368;-78
2024/01/18 06:53:04;;;;;;;51.50;22.10;;;;;;;0.05;100.00;97871.92;111611;1260;22088;-77
2024/01/18 06:55:55;;;;;;;51.90;22.40;;;;;;;0.05;100.00;97875.80;111639;1263;22979;-76
2024/01/18 06:58:46;;;;;;;53.00;22.80;;;;;;;0.06;100.00;97874.33;111624;1266;22139;-76
2024/01/18 07:01:37;;;;;;;54.30;22.50;;;;;;;0.05;100.00;97879.98;111563;1263;22123;-76
2024/01/18 07:04:26;;;;;;;;;;;;;;;0.04;100.00;97882.95;111619;1260;22450;-77
2024/01/18 07:07:17;;;;;;;59.40;22.10;;;;;;;0.02;100.00;97883.83;111626;1264;22336;-76
2024/01/18 07:10:09;;;;;;;58.00;22.70;;;;;;;0.00;100.00;97892.96;111631;1260;22072;-76
2024/01/18 07:13:00;;;;;;;51.80;20.90;;;;;;;-0.01;100.00;97893.04;111610;1266;22160;-77
2024/01/18 07:15:49;;;;;;;;;;;;;;;0.00;100.00;97899.24;111229;1268;22407;-76
2024/01/18 07:18:40;;;;;;;51.20;21.10;;;;;;;-0.01;100.00;97905.96;111456;1268;22275;-76
2024/01/18 07:21:31;;;;;;;55.10;20.80;;;;;;;-0.00;100.00;97910.96;111615;1263;22126;-76
2024/01/18 07:24:23;;;;;;;54.00;24.50;;;;;;;-0.00;100.00;97911.36;111605;1260;22249;-76
2024/01/18 07:27:14;;;;;;;61.80;27.10;;;;;;;-0.01;100.00;97912.45;111610;1260;22414;-77
2024/01/18 07:30:06;;;;;;;62.10;27.10;;;;;;;-0.00;100.00;97912.98;111510;1263;149617;-78
2024/01/18 07:32:57;;;;;;;68.80;26.50;;;;;;;-0.01;100.00;97919.70;111595;1260;22162;-76
2024/01/18 07:35:47;;;;;;;58.20;25.70;;;;;;;-0.02;100.00;97917.60;111456;1265;22644;-76
2024/01/18 07:38:39;;;;;;;51.90;21.40;;;;;;;-0.03;100.00;97920.65;111619;1260;22201;-77
2024/01/18 07:41:30;;;;;;;57.30;24.00;;;;;;;-0.05;100.00;97915.94;111618;1260;22143;-76
2024/01/18 07:44:23;;;;;;;61.80;26.50;;;;;;;-0.06;100.00;97917.35;111481;1263;22957;-78
2024/01/18 07:47:16;;;;;;;56.70;23.20;;;;;;;-0.06;100.00;97919.67;111572;1266;22591;-77
2024/01/18 07:50:09;;;;;;;60.50;24.40;;;;;;;-0.07;100.00;97930.39;111608;1260;22178;-76
2024/01/18 07:53:00;;;;;;;58.60;23.60;;;;;;;-0.09;100.00;97938.88;111610;1259;22165;-77
2024/01/18 07:55:51;;;;;;;57.70;24.80;;;;;;;-0.10;100.00;97935.48;111611;1260;23116;-77
2024/01/18 07:58:43;;;;;;;54.50;22.80;;;;;;;-0.10;100.00;97938.10;111618;1266;22827;-76
2024/01/18 08:01:33;;;;;;;52.20;23.20;;;;;;;-0.08;100.00;97939.14;111613;1260;22289;-76
2024/01/18 08:04:25;;;;;;;55.30;23.10;;;;;;;-0.08;100.00;97943.77;111582;1266;22318;-77
2024/01/18 08:07:16;;;;;;;61.70;25.00;;;;;;;-0.06;100.00;97952.41;111620;1260;22244;-75
2024/01/18 08:10:09;;;;;;;61.00;25.00;;;;;;;-0.02;100.00;97955.39;111585;1259;22229;-79
2024/01/18 08:13:01;;;;;;;62.50;26.60;;;;;;;0.00;100.00;97962.33;111465;1264;22784;-77
2024/01/18 08:15:52;;;;;;;61.80;24.60;;;;;;;0.04;100.00;97966.56;111271;1268;22102;-76
2024/01/18 08:18:44;;;;;;;64.70;24.80;;;;;;;0.06;100.00;97976.48;111427;1268;22162;-75
2024/01/18 08:21:43;;;;;;;67.90;27.40;;;;;;;0.03;100.00;97976.30;111412;1268;22184;-75
2024/01/18 08:24:34;;;;;;;65.30;26.00;;;;;;;0.01;100.00;97977.11;111446;1267;22212;-76
2024/01/18 08:27:23;;;;;;;;;;;;;;;0.00;100.00;97977.55;111468;1260;22456;-76
2024/01/18 08:30:15;;;;;;;56.80;24.30;;;;;;;-0.03;100.00;97976.91;111458;1260;22254;-78
2024/01/18 08:33:08;;;;;;;61.10;23.80;;;;;;;-0.06;100.00;97980.02;111400;1259;22968;-76
2024/01/18 08:35:59;;;;;;;57.30;23.50;;;;;;;-0.04;100.00;97986.30;111431;1268;22375;-76
2024/01/18 08:38:50;;;;;;;59.50;24.00;;;;;;;-0.03;100.00;97985.50;111463;1263;22104;-75
2024/01/18 08:41:41;;;;;;;56.30;23.60;;;;;;;-0.01;100.00;97991.63;111451;1266;23100;-76
2024/01/18 08:44:32;;;;;;;52.80;23.80;;;;;;;-0.00;100.00;97996.77;111476;1264;22202;-78
2024/01/18 08:47:23;;;;;;;57.50;23.80;;;;;;;-0.02;100.00;98002.02;111439;1264;22183;-75
2024/01/18 08:50:15;;;;;;;55.80;22.90;;;;;;;-0.03;100.00;98008.69;111444;1261;22227;-76
2024/01/18 08:53:06;;;;;;;58.60;23.90;;;;;;;-0.02;100.00;98011.73;111475;1260;22182;-75
2024/01/18 08:55:57;;;;;;;49.30;20.70;;;;;;;-0.02;100.00;98014.33;111458;1260;22854;-75
2024/01/18 08:58:48;;;;;;;54.10;22.10;;;;;;;-0.06;100.00;98011.45;111447;1260;22140;-75
2024/01/18 09:01:39;;;;;;;52.90;21.30;;;;;;;-0.08;100.00;98019.46;111450;1260;23062;-74
2024/01/18 09:04:29;;;;;;;57.50;25.10;;;;;;;-0.11;100.00;98026.33;111417;1260;22178;-76
2024/01/18 09:07:20;;;;;;;50.10;21.10;;;;;;;-0.13;100.00;98024.77;111462;1260;22298;-78
2024/01/18 09:10:11;;;;;;;53.40;22.30;;;;;;;-0.14;100.00;98026.07;111408;1260;22266;-76
2024/01/18 09:13:02;;;;;;;50.30;20.30;;;;;;;-0.14;100.00;98025.86;111411;1262;22269;-77
2024/01/18 09:15:53;;;;;;;47.80;21.80;;;;;;;-0.14;100.00;98032.83;111551;1264;22334;-75
2024/01/18 09:18:44;;;;;;;53.60;20.60;;;;;;;-0.14;100.00;98033.98;111453;1257;22158;-76
2024/01/18 09:21:33;;;;;;;;;;;;;;;-0.13;100.00;98035.20;111629;1260;23446;-77
2024/01/18 09:24:24;;;;;;;56.40;23.00;;;;;;;-0.12;100.00;98042.36;111574;1260;23155;-77
2024/01/18 09:27:14;;;;;;;53.00;21.00;;;;;;;-0.12;100.00;98051.48;111597;1266;22864;-77
2024/01/18 09:30:04;;;;;;;;;;;;;;;-0.13;100.00;98050.65;111481;1260;22370;-75
2024/01/18 09:32:55;;;;;;;52.60;22.50;;;;;;;-0.13;100.00;98060.34;111606;1266;22266;-76
2024/01/18 09:35:46;;;;;;;52.20;22.80;;;;;;;-0.10;100.00;98063.95;111541;1263;22711;-75
2024/01/18 09:38:37;;;;;;;52.20;22.50;;;;;;;-0.06;100.00;98072.24;111532;1260;22348;-76
2024/01/18 09:41:29;;;;;;;60.30;25.20;;;;;;;-0.03;100.00;98073.61;111491;1263;22268;-76
2024/01/18 09:44:26;;;;;;;62.80;25.00;;;;;;;-0.03;100.00;98068.42;111605;1263;22779;-78
2024/01/18 09:47:17;;;;;;;60.10;25.00;;;;;;;-0.02;100.00;98072.20;111006;1260;22517;-77
2024/01/18 09:50:10;;;;;;;55.80;24.60;;;;;;;-0.02;100.00;98065.95;108478;1260;24169;-81
2024/01/18 09:53:01;;;;;;;58.10;23.40;;;;;;;-0.01;100.00;98063.96;108372;1260;22633;-77
2024/01/18 09:55:55;;;;;;;58.70;22.60;;;;;;;-0.02;100.00;98062.90;108524;1266;25319;-77
2024/01/18 09:58:46;;;;;;;56.90;23.80;;;;;;;-0.06;100.00;98073.27;108488;1260;22515;-75
2024/01/18 10:01:38;;;;;;;57.10;24.20;;;;;;;-0.12;100.00;98076.04;108537;1260;22643;-75
2024/01/18 10:04:31;;;;;;;59.20;26.40;;;;;;;-0.14;100.00;98075.66;108515;1260;24186;-77
2024/01/18 10:07:22;;;;;;;61.80;25.40;;;;;;;-0.13;100.00;98077.67;108515;1263;22598;-76
2024/01/18 10:10:14;;;;;;;59.50;24.10;;;;;;;-0.14;100.00;98078.40;108459;1260;22553;-75
2024/01/18 10:13:06;;;;;;;57.20;23.50;;;;;;;-0.12;100.00;98078.02;108745;1260;23081;-76
2024/01/18 10:15:56;;;;;;;59.70;24.20;;;;;;;-0.12;100.00;98080.05;108590;1263;22696;-76
2024/01/18 10:18:47;;;;;;;57.40;23.90;;;;;;;-0.12;100.00;98085.23;108537;1266;22597;-75
2024/01/18 10:21:39;;;;;;;59.00;24.70;;;;;;;-0.11;100.00;98087.15;108166;1266;22582;-76
2024/01/18 10:24:31;;;;;;;54.30;22.90;;;;;;;-0.08;100.00;98089.98;108444;1260;22939;-80
2024/01/18 10:27:22;;;;;;;62.50;25.20;;;;;;;-0.05;100.00;98090.86;108104;1263;22520;-75
2024/01/18 10:30:15;;;;;;;63.40;26.60;;;;;;;-0.02;100.00;98089.14;108596;1263;22574;-74
2024/01/18 10:33:08;;;;;;;57.90;24.10;;;;;;;0.03;100.00;98086.58;111597;1263;22215;-76
2024/01/18 10:36:00;;;;;;;58.70;24.80;;;;;;;0.09;100.00;98083.42;111575;1263;22257;-76
2024/01/18 10:38:51;;;;;;;62.30;25.80;;;;;;;0.13;100.00;98097.41;111574;1263;22176;-73
2024/01/18 10:41:42;;;;;;;66.30;27.00;;;;;;;0.19;100.00;98105.48;111559;1263;22062;-73
2024/01/18 10:44:34;;;;;;;64.40;26.10;;;;;;;0.21;100.00;98108.75;111613;1263;22862;-73
2024/01/18 10:47:26;;;;;;;69.10;28.50;;;;;;;0.22;100.00;98112.85;111606;1267;23709;-73
2024/01/18 10:50:17;;;;;;;71.40;28.20;;;;;;;0.25;100.00;98105.65;111611;1260;22381;-72
2024/01/18 10:53:09;;;;;;;59.90;24.60;;;;;;;0.27;100.00;98106.59;111597;1260;22083;-73
2024/01/18 10:56:02;;;;;;;67.00;29.90;;;;;;;0.26;100.00;98099.73;111480;1261;22346;-73
2024/01/18 10:58:54;;;;;;;65.70;25.00;;;;;;;0.27;100.00;98088.41;111555;1260;22139;-73
2024/01/18 11:01:46;;;;;;;67.90;27.30;;;;;;;0.28;100.00;98087.48;111452;1263;22197;-73
2024/01/18 11:04:38;;;;;;;70.10;31.80;;;;;;;0.29;100.00;98091.52;111560;1266;22146;-72
2024/01/18 11:07:30;;;;;;;70.40;28.50;;;;;;;0.28;100.00;98098.44;111626;1266;23087;-72
2024/01/18 11:10:22;;;;;;;67.30;29.10;;;;;;;0.29;100.00;98099.81;111594;1261;22981;-73
2024/01/18 11:13:14;;;;;;;60.40;24.80;;;;;;;0.28;100.00;98098.77;111583;1259;22794;-73
2024/01/18 11:16:06;;;;;;;67.10;28.40;;;;;;;0.28;100.00;98094.68;111500;1266;23026;-75
2024/01/18 11:19:02;;;;;;;59.80;24.00;;;;;;;0.30;100.00;98093.98;111572;1256;22081;-73
2024/01/18 11:21:53;;;;;;;67.10;27.40;;;;;;;0.30;100.00;98094.60;111597;1266;22333;-73
2024/01/18 11:24:44;;;;;;;67.00;29.10;;;;;;;0.33;100.00;98101.04;111565;1260;22240;-74
2024/01/18 11:27:40;;;;;;;63.00;27.20;;;;;;;0.35;100.00;98102.54;111607;1266;22713;-74
2024/01/18 11:30:37;;;;;;;79.40;31.50;;;;;;;0.36;100.00;98100.30;111565;1263;22148;-74
2024/01/18 11:33:29;;;;;;;76.80;34.30;;;;;;;0.38;100.00;98103.08;111607;1260;22176;-73
2024/01/18 11:36:20;;;;;;;78.80;33.00;;;;;;;0.42;100.00;98098.92;111570;1263;22310;-73
2024/01/18 11:39:11;;;;;;;86.20;35.70;;;;;;;0.42;100.00;98093.73;111506;1255;22190;-75
2024/01/18 11:42:03;;;;;;;82.70;34.10;;;;;;;0.45;100.00;98102.85;110555;1263;25335;-74
2024/01/18 11:45:00;;;;;;;75.50;33.10;;;;;;;0.45;100.00;98106.08;111406;1260;22208;-75
2024/01/18 11:47:51;;;;;;;64.80;28.10;;;;;;;0.42;100.00;98107.21;111508;1260;22178;-76
2024/01/18 11:50:40;;;;;;;;;;;;;;;0.40;100.00;98110.55;111482;1260;23162;-76
2024/01/18 11:53:32;;;;;;;70.90;27.90;;;;;;;0.37;100.00;98116.33;111399;1256;22275;-76
2024/01/18 11:56:25;;;;;;;62.90;26.20;;;;;;;0.38;100.00;98122.79;111535;1261;22412;-75
2024/01/18 11:59:19;;;;;;;67.20;28.50;;;;;;;0.34;100.00;98121.73;111518;1260;22288;-75
2024/01/18 12:02:12;;;;;;;62.10;28.20;;;;;;;0.29;100.00;98119.11;111446;1259;22325;-76
2024/01/18 12:05:04;;;;;;;73.00;29.90;;;;;;;0.25;100.00;98118.81;111526;1261;22327;-75
2024/01/18 12:07:56;;;;;;;62.30;26.80;;;;;;;0.24;100.00;98121.62;111448;1260;23154;-75
2024/01/18 12:10:47;;;;;;;65.90;27.40;;;;;;;0.26;100.00;98128.36;111545;1261;22291;-75
2024/01/18 12:13:38;;;;;;;66.00;28.60;;;;;;;0.27;100.00;98126.10;111552;1260;22339;-75
2024/01/18 12:16:31;;;;;;;65.80;28.70;;;;;;;0.26;100.00;98114.85;111540;1266;22341;-75
2024/01/18 12:19:33;;;;;;;60.30;24.90;;;;;;;0.28;100.00;98107.65;111461;1266;22094;-75
2024/01/18 12:22:25;;;;;;;65.90;28.00;;;;;;;0.27;100.00;98103.45;109025;1260;22626;-75
2024/01/18 12:25:17;;;;;;;60.40;26.50;;;;;;;0.25;100.00;98109.64;111444;1260;22295;-75
2024/01/18 12:28:08;;;;;;;65.30;28.80;;;;;;;0.21;100.00;98106.23;111571;1259;22811;-76
2024/01/18 12:31:01;;;;;;;63.90;27.70;;;;;;;0.21;100.00;98123.59;111550;1267;22328;-74
2024/01/18 12:33:54;;;;;;;64.20;27.30;;;;;;;0.12;100.00;98129.35;111481;1267;22174;-75
2024/01/18 12:36:45;;;;;;;71.80;31.00;;;;;;;0.06;100.00;98125.34;111456;1266;22618;-75
2024/01/18 12:39:36;;;;;;;62.00;27.30;;;;;;;0.03;100.00;98130.71;111482;1267;22105;-74
2024/01/18 12:42:25;;;;;;;;;;;;;;;0.01;100.00;98137.40;111551;1263;22322;-76
2024/01/18 12:45:17;;;;;;;71.20;30.30;;;;;;;-0.05;100.00;98139.04;111545;1261;22308;-74
2024/01/18 12:48:08;;;;;;;64.80;28.10;;;;;;;-0.07;100.00;98130.11;111530;1264;22249;-75
2024/01/18 12:51:01;;;;;;;68.70;29.40;;;;;;;-0.06;100.00;98129.28;111579;1263;22321;-74
2024/01/18 12:53:52;;;;;;;76.60;29.40;;;;;;;-0.05;100.00;98138.73;111585;1263;22239;-75
2024/01/18 12:56:45;;;;;;;60.00;25.00;;;;;;;-0.03;100.00;98146.31;111522;1260;22500;-78
2024/01/18 12:59:36;;;;;;;67.70;30.00;;;;;;;0.01;100.00;98143.98;111478;1263;22149;-75
2024/01/18 13:02:27;;;;;;;66.60;27.60;;;;;;;-0.01;100.00;98144.46;111533;1266;22353;-76